Midland, Louisiana
Current Conditions -  °F | °C
As of 10:15 AM on Thursday 30 Oct 2014 (Local Time) from K3R7 Reporting Station
Clear Clear  
Wind Chill: 64°   Ceiling: Unl
Heat Index: 64°   Visibility: 10mi
Dew Point: 47°   Wind: 14mph
Humidity: 54%   Direction: 60°ENE
Pressure: 30.15"   Gusts: NA
Location:  30.1362°N, 92.4618°W
Report Text: K3R7 301515Z AUTO 06012KT 10SM CLR 18/08 A3015 RMK AO2 T01790084
Loading
Personal Weather Stations






























Interactive Weather Map
Tropical Storm Tracking
New forecast layout! Learn more

10-Day Weather Forecast

Advertisements
Track Severe Weather on mobile